^^
Saratoga-Weather Station Historical Data
Daily Summary for April 15, 2020 Units:  English    Metric   Both
Daily Weekly Monthly Yearly Custom
  High: Low: Average:
Temperature: 54.1 °F 37.9 °F 46 °F
Dew Point: 44.2 °F 36.3 °F 41 °F
Humidity: 96% 67% 83%
Wind Speed: 11mph 0mph 1.4mph
Wind Gust: 11mph - -
Wind- - SSE
Pressure: 30.3 in 30 in -
Precipitation: 0 in    
Historical Graphs
 
 
Tabular Data for April 15, 2020
Time Temperature Dew Point Pressure Wind Wind Speed Wind Gust Humidity Rainfall Rate (Hourly) solar
00:01 43.9 °F 41.7 °F 30.3 in East 0.9 mph 2 mph 92% 0 in 0 W/m2
00:06 43.9 °F 41.7 °F 30.3 in East 2.9 mph 3 mph 92% 0 in 0 W/m2
00:11 44.1 °F 41.5 °F 30.3 in East 2 mph 2 mph 91% 0 in 0 W/m2
00:16 44.2 °F 41.7 °F 30.3 in East 0.9 mph 3 mph 91% 0 in 0 W/m2
00:21 44.2 °F 41.5 °F 30.3 in East 0.9 mph 1 mph 90% 0 in 0 W/m2
00:26 44.2 °F 41.5 °F 30.3 in Calm   2 mph 90% 0 in 0 W/m2
00:32 44.1 °F 41.4 °F 30.3 in East 0.9 mph 1 mph 90% 0 in 0 W/m2
00:37 44.1 °F 41.5 °F 30.3 in Calm   1 mph 91% 0 in 0 W/m2
00:42 44.1 °F 41.5 °F 30.3 in Calm     91% 0 in 0 W/m2
00:47 43.9 °F 41.4 °F 30.3 in Calm     91% 0 in 0 W/m2
00:52 43.9 °F 41.4 °F 30.3 in Calm   1 mph 91% 0 in 0 W/m2
00:57 43.7 °F 41.2 °F 30.3 in East 0.9 mph 2 mph 91% 0 in 0 W/m2
01:02 43.5 °F 41 °F 30.2 in Calm   3 mph 91% 0 in 0 W/m2
01:07 43.5 °F 41 °F 30.2 in Calm     91% 0 in 0 W/m2
01:12 43.5 °F 41 °F 30.2 in Calm   2 mph 91% 0 in 0 W/m2
01:17 43.3 °F 40.8 °F 30.2 in East 0.9 mph 1 mph 91% 0 in 0 W/m2
01:22 43.3 °F 40.8 °F 30.2 in Calm   2 mph 91% 0 in 0 W/m2
01:27 43.2 °F 40.6 °F 30.2 in Calm     91% 0 in 0 W/m2
01:32 43 °F 40.5 °F 30.2 in Calm     91% 0 in 0 W/m2
01:37 43 °F 40.5 °F 30.2 in Calm     91% 0 in 0 W/m2
01:42 42.6 °F 40.1 °F 30.2 in Calm     91% 0 in 0 W/m2
01:47 42.3 °F 39.7 °F 30.2 in Calm     91% 0 in 0 W/m2
01:53 42.1 °F 39.6 °F 30.2 in Calm     91% 0 in 0 W/m2
01:58 41.7 °F 39.2 °F 30.2 in Calm   2 mph 91% 0 in 0 W/m2
02:03 41.5 °F 39.4 °F 30.2 in Calm     92% 0 in 0 W/m2
02:08 41.5 °F 39.4 °F 30.2 in Calm     92% 0 in 0 W/m2
02:13 41.4 °F 39.2 °F 30.2 in East 0.9 mph 1 mph 92% 0 in 0 W/m2
02:18 41.4 °F 39.2 °F 30.2 in Calm     92% 0 in 0 W/m2
02:23 41.2 °F 39 °F 30.2 in Calm     92% 0 in 0 W/m2
02:28 41 °F 39.2 °F 30.2 in Calm     93% 0 in 0 W/m2
02:33 40.8 °F 39 °F 30.2 in Calm     93% 0 in 0 W/m2
02:38 40.8 °F 39 °F 30.2 in Calm     93% 0 in 0 W/m2
02:43 40.6 °F 38.8 °F 30.2 in Calm     93% 0 in 0 W/m2
02:48 40.6 °F 38.8 °F 30.2 in Calm     93% 0 in 0 W/m2
02:53 40.5 °F 38.7 °F 30.2 in Calm     93% 0 in 0 W/m2
02:58 40.5 °F 38.7 °F 30.2 in Calm     93% 0 in 0 W/m2
03:04 40.3 °F 38.5 °F 30.2 in Calm     93% 0 in 0 W/m2
03:09 40.3 °F 38.5 °F 30.2 in Calm     93% 0 in 0 W/m2
03:14 40.1 °F 38.3 °F 30.2 in Calm     93% 0 in 0 W/m2
03:19 39.9 °F 38.3 °F 30.2 in Calm     94% 0 in 0 W/m2
03:24 39.9 °F 38.3 °F 30.2 in Calm     94% 0 in 0 W/m2
03:29 39.7 °F 38.1 °F 30.2 in East 2 mph 3 mph 94% 0 in 0 W/m2
03:34 39.9 °F 38.3 °F 30.2 in East 0.9 mph 1 mph 94% 0 in 0 W/m2
03:39 39.7 °F 38.1 °F 30.2 in Calm   2 mph 94% 0 in 0 W/m2
03:44 39.7 °F 38.1 °F 30.2 in Calm     94% 0 in 0 W/m2
03:49 39.6 °F 37.9 °F 30.2 in Calm     94% 0 in 0 W/m2
03:54 39.4 °F 37.8 °F 30.2 in Calm     94% 0 in 0 W/m2
03:59 39.4 °F 37.8 °F 30.2 in Calm     94% 0 in 0 W/m2
04:04 39.2 °F 37.6 °F 30.2 in Calm     94% 0 in 0 W/m2
04:09 39.2 °F 37.6 °F 30.2 in Calm     94% 0 in 0 W/m2
04:14 39 °F 37.4 °F 30.2 in Calm     94% 0 in 0 W/m2
04:19 39 °F 37.4 °F 30.2 in Calm     94% 0 in 0 W/m2
04:24 39 °F 37.4 °F 30.2 in East 2 mph 2 mph 94% 0 in 0 W/m2
04:29 38.8 °F 37.2 °F 30.2 in Calm     94% 0 in 0 W/m2
04:34 38.8 °F 37.2 °F 30.2 in Calm     94% 0 in 0 W/m2
04:39 38.7 °F 37 °F 30.2 in Calm   2 mph 94% 0 in 0 W/m2
04:44 38.7 °F 37 °F 30.2 in ESE 2 mph 2 mph 94% 0 in 0 W/m2
04:49 38.7 °F 37 °F 30.2 in Calm     94% 0 in 0 W/m2
04:54 38.5 °F 36.9 °F 30.2 in ESE 2 mph 2 mph 94% 0 in 0 W/m2
04:59 38.5 °F 36.9 °F 30.2 in Calm     94% 0 in 0 W/m2
05:04 38.1 °F 36.5 °F 30.2 in Calm     94% 0 in 0 W/m2
05:09 37.9 °F 36.3 °F 30.2 in Calm     94% 0 in 0 W/m2
05:14 37.9 °F 36.3 °F 30.2 in Calm     94% 0 in 0 W/m2
05:19 37.9 °F 36.7 °F 30.2 in Calm     95% 0 in 0 W/m2
05:24 37.9 °F 36.7 °F 30.2 in Calm     95% 0 in 0 W/m2
05:29 37.9 °F 36.7 °F 30.2 in ESE 0.9 mph 1 mph 95% 0 in 0 W/m2
05:34 38.1 °F 36.9 °F 30.2 in ESE 2 mph 2 mph 95% 0 in 0 W/m2
05:39 38.1 °F 36.9 °F 30.2 in Calm     95% 0 in 0 W/m2
05:44 38.1 °F 36.9 °F 30.2 in Calm     95% 0 in 0 W/m2
05:49 38.1 °F 36.9 °F 30.2 in Calm     95% 0 in 0 W/m2
05:54 38.3 °F 37 °F 30.2 in Calm     95% 0 in 0 W/m2
05:59 38.3 °F 37 °F 30.2 in Calm     95% 0 in 0 W/m2
06:04 38.5 °F 37.2 °F 30.2 in ESE 1 mph 1 mph 95% 0 in 0 W/m2
06:10 38.5 °F 37.2 °F 30.2 in ESE 0.9 mph 2 mph 95% 0 in 0 W/m2
06:15 38.7 °F 37.4 °F 30.2 in Calm   3 mph 95% 0 in 0 W/m2
06:20 38.7 °F 37.4 °F 30.2 in ESE 0.9 mph 1 mph 95% 0 in 0 W/m2
06:25 38.8 °F 37.6 °F 30.2 in Calm     95% 0 in 0 W/m2
06:30 38.8 °F 37.6 °F 30.2 in Calm     95% 0 in 0 W/m2
06:35 38.8 °F 37.6 °F 30.2 in Calm     95% 0 in 0 W/m2
06:40 38.8 °F 37.6 °F 30.2 in Calm     95% 0 in 0 W/m2
06:45 38.8 °F 37.6 °F 30.2 in Calm     95% 0 in 0 W/m2
06:50 38.8 °F 37.6 °F 30.2 in Calm     95% 0 in 0 W/m2
06:55 38.8 °F 37.6 °F 30.2 in ESE 2 mph 2 mph 95% 0 in 0 W/m2
07:00 38.8 °F 37.6 °F 30.2 in Calm     95% 0 in 0 W/m2
07:05 38.8 °F 37.6 °F 30.2 in Calm     95% 0 in 0 W/m2
07:10 38.8 °F 37.6 °F 30.2 in Calm     95% 0 in 0 W/m2
07:15 38.8 °F 37.6 °F 30.2 in Calm     95% 0 in 0 W/m2
07:20 38.8 °F 37.6 °F 30.2 in Calm     95% 0 in 0 W/m2
07:25 38.8 °F 37.6 °F 30.2 in ESE 2 mph 2 mph 95% 0 in 0 W/m2
07:30 38.8 °F 37.6 °F 30.2 in ESE 0.9 mph 2 mph 95% 0 in 0 W/m2
07:35 38.8 °F 37.6 °F 30.2 in Calm   2 mph 95% 0 in 0 W/m2
07:40 38.8 °F 37.6 °F 30.2 in Calm   1 mph 95% 0 in 0 W/m2
07:45 38.8 °F 37.6 °F 30.2 in ESE 0.9 mph 1 mph 95% 0 in 0 W/m2
07:50 38.8 °F 37.6 °F 30.2 in Calm     95% 0 in 5 W/m2
07:56 38.8 °F 37.8 °F 30.2 in Calm   1 mph 96% 0 in 7 W/m2
08:01 39 °F 37.9 °F 30.2 in Calm     96% 0 in 12 W/m2
08:06 39 °F 37.9 °F 30.2 in Calm     96% 0 in 19 W/m2
08:11 39.2 °F 38.1 °F 30.2 in ESE 2 mph 2 mph 96% 0 in 19 W/m2
08:16 39.4 °F 38.3 °F 30.2 in ESE 0.9 mph 2 mph 96% 0 in 21 W/m2
08:21 39.4 °F 38.1 °F 30.2 in ESE 2 mph 2 mph 95% 0 in 25 W/m2
08:26 39.4 °F 38.3 °F 30.2 in ESE 0.9 mph 1 mph 96% 0 in 26 W/m2
08:31 39.4 °F 38.3 °F 30.2 in ESE 0.9 mph 2 mph 96% 0 in 28 W/m2
08:36 39.4 °F 38.1 °F 30.2 in ESE 0.9 mph 2 mph 95% 0 in 32 W/m2
08:41 39.4 °F 38.1 °F 30.2 in ESE 0.9 mph 3 mph 95% 0 in 32 W/m2
08:46 39.4 °F 38.1 °F 30.2 in ESE 0.9 mph 2 mph 95% 0 in 33 W/m2
08:51 39.6 °F 38.3 °F 30.2 in Calm     95% 0 in 49 W/m2
08:56 39.6 °F 38.3 °F 30.2 in Calm     95% 0 in 67 W/m2
09:01 39.6 °F 38.3 °F 30.2 in Calm     95% 0 in 69 W/m2
09:06 39.7 °F 38.5 °F 30.2 in Calm     95% 0 in 65 W/m2
09:11 39.7 °F 38.5 °F 30.2 in Calm     95% 0 in 65 W/m2
09:16 39.9 °F 38.8 °F 30.2 in Calm     96% 0 in 67 W/m2
09:21 40.1 °F 39 °F 30.2 in Calm     96% 0 in 77 W/m2
09:26 40.3 °F 39 °F 30.2 in Calm     95% 0 in 70 W/m2
09:31 40.5 °F 39.2 °F 30.2 in Calm     95% 0 in 62 W/m2
09:36 40.6 °F 39.6 °F 30.2 in Calm   2 mph 96% 0 in 65 W/m2
09:41 40.8 °F 39.6 °F 30.2 in ESE 0.9 mph 2 mph 95% 0 in 65 W/m2
09:46 41.2 °F 39.9 °F 30.2 in Calm   2 mph 95% 0 in 76 W/m2
09:51 41.4 °F 40.1 °F 30.2 in ESE 2.9 mph 3 mph 95% 0 in 93 W/m2
09:56 41.7 °F 40.5 °F 30.2 in East 2 mph 3 mph 95% 0 in 90 W/m2
10:01 42.1 °F 40.8 °F 30.2 in ESE 0.9 mph 1 mph 95% 0 in 93 W/m2
10:06 42.4 °F 40.8 °F 30.2 in ESE 2 mph 4 mph 94% 0 in 98 W/m2
10:11 42.6 °F 41 °F 30.2 in ESE 2.9 mph 3 mph 94% 0 in 107 W/m2
10:16 42.8 °F 41 °F 30.2 in ESE 2 mph 4 mph 93% 0 in 114 W/m2
10:21 43 °F 41.2 °F 30.2 in ESE 2 mph 3 mph 93% 0 in 113 W/m2
10:26 43.2 °F 41 °F 30.2 in ESE 2 mph 4 mph 92% 0 in 123 W/m2
10:31 43.2 °F 41 °F 30.2 in East 2 mph 3 mph 92% 0 in 123 W/m2
10:36 43.3 °F 41.2 °F 30.2 in East 2 mph 3 mph 92% 0 in 130 W/m2
10:41 43.5 °F 41 °F 30.2 in East 0.9 mph 3 mph 91% 0 in 155 W/m2
10:46 43.9 °F 41.4 °F 30.2 in East 2 mph 4 mph 91% 0 in 160 W/m2
10:51 44.2 °F 41.7 °F 30.2 in ENE 2 mph 3 mph 91% 0 in 165 W/m2
10:56 44.4 °F 41.7 °F 30.2 in ESE 2 mph 3 mph 90% 0 in 141 W/m2
11:02 44.6 °F 41.9 °F 30.2 in ENE 2 mph 3 mph 90% 0 in 146 W/m2
11:07 44.8 °F 42.1 °F 30.2 in East 2 mph 3 mph 90% 0 in 158 W/m2
11:12 45 °F 41.9 °F 30.2 in ENE 2.9 mph 4 mph 89% 0 in 139 W/m2
11:17 45 °F 41.9 °F 30.2 in ENE 0.9 mph 2 mph 89% 0 in 125 W/m2
11:22 45.1 °F 42.1 °F 30.2 in East 0.9 mph 3 mph 89% 0 in 97 W/m2
11:27 45.3 °F 41.9 °F 30.2 in ESE 0.9 mph 2 mph 88% 0 in 72 W/m2
11:32 45.7 °F 42.3 °F 30.2 in SE 0.9 mph 3 mph 88% 0 in 172 W/m2
11:37 46 °F 42.6 °F 30.2 in ENE 2 mph 4 mph 88% 0 in 206 W/m2
11:42 46.2 °F 42.6 °F 30.2 in East 2 mph 3 mph 87% 0 in 269 W/m2
11:47 46.8 °F 43.2 °F 30.2 in ENE 2.9 mph 3 mph 87% 0 in 204 W/m2
11:52 47.1 °F 43.5 °F 30.2 in Calm   2 mph 87% 0 in 197 W/m2
11:57 47.7 °F 43.7 °F 30.2 in North 2 mph 2 mph 86% 0 in 214 W/m2
12:02 48.2 °F 43.5 °F 30.2 in WNW 2 mph 3 mph 84% 0 in 218 W/m2
12:07 48.7 °F 43.9 °F 30.2 in NE 0.9 mph 2 mph 83% 0 in 234 W/m2
12:12 49.3 °F 43.7 °F 30.2 in SE 0.9 mph 3 mph 81% 0 in 250 W/m2
12:17 49.8 °F 43.5 °F 30.2 in SSW 2 mph 9 mph 79% 0 in 330 W/m2
12:22 50.4 °F 43.7 °F 30.2 in NNE 2.9 mph 4 mph 78% 0 in 327 W/m2
12:27 50.7 °F 43.5 °F 30.2 in ENE 8.1 mph 8 mph 76% 0 in 332 W/m2
12:32 51.1 °F 43.5 °F 30.2 in NNW 2 mph 3 mph 75% 0 in 230 W/m2
12:37 51.3 °F 43.5 °F 30.2 in NNE 2.9 mph 6 mph 75% 0 in 216 W/m2
12:42 51.3 °F 43.3 °F 30.2 in NE 2 mph 3 mph 74% 0 in 176 W/m2
12:47 51.3 °F 43.3 °F 30.2 in WNW 2.9 mph 4 mph 74% 0 in 183 W/m2
12:52 51.3 °F 43.3 °F 30.2 in NE 2.9 mph 8 mph 74% 0 in 121 W/m2
12:57 51.4 °F 43.5 °F 30.1 in East 6 mph 8 mph 74% 0 in 176 W/m2
13:02 51.4 °F 43.5 °F 30.1 in NW 11 mph 11 mph 74% 0 in 149 W/m2
13:07 51.4 °F 43.5 °F 30.1 in NNW 2.9 mph 6 mph 74% 0 in 176 W/m2
13:13 51.4 °F 43.5 °F 30.1 in North 0.9 mph 11 mph 74% 0 in 165 W/m2
13:18 51.8 °F 43.3 °F 30.1 in ENE 4 mph 9 mph 73% 0 in 185 W/m2
13:23 51.8 °F 43.7 °F 30.1 in NNE 2.9 mph 5 mph 74% 0 in 163 W/m2
13:28 51.8 °F 43 °F 30.1 in NW 6 mph 11 mph 72% 0 in 149 W/m2
13:33 52 °F 43.5 °F 30.1 in SW 2 mph 9 mph 73% 0 in 113 W/m2
13:38 52.2 °F 43.3 °F 30.1 in WNW 6.9 mph 8 mph 72% 0 in 109 W/m2
13:43 52 °F 43.2 °F 30.1 in NW 2 mph 11 mph 72% 0 in 130 W/m2
13:48 52 °F 43.5 °F 30.1 in NNW 2 mph 3 mph 73% 0 in 118 W/m2
13:53 52.3 °F 43.5 °F 30.1 in NW 4 mph 9 mph 72% 0 in 158 W/m2
13:58 52.5 °F 43.7 °F 30.1 in WNW 0.9 mph 4 mph 72% 0 in 253 W/m2
14:03 52.9 °F 43.7 °F 30.1 in WNW 6.9 mph 9 mph 71% 0 in 163 W/m2
14:08 52.9 °F 44.1 °F 30.1 in NNE 2.9 mph 4 mph 72% 0 in 181 W/m2
14:13 53.1 °F 44.2 °F 30.1 in North 0.9 mph 10 mph 72% 0 in 149 W/m2
14:18 53.2 °F 43.7 °F 30.1 in West 0.9 mph 6 mph 70% 0 in 153 W/m2
14:23 53.2 °F 43.7 °F 30.1 in Calm   4 mph 70% 0 in 163 W/m2
14:28 53.4 °F 43.9 °F 30.1 in NW 0.9 mph 7 mph 70% 0 in 139 W/m2
14:33 53.4 °F 43.9 °F 30.1 in NNW 4 mph 6 mph 70% 0 in 95 W/m2
14:38 53.4 °F 43.5 °F 30.1 in NW 6.9 mph 10 mph 69% 0 in 72 W/m2
14:43 53.2 °F 43.7 °F 30.1 in East 2.9 mph 4 mph 70% 0 in 49 W/m2
14:48 53.2 °F 43.7 °F 30.1 in SSW 0.9 mph 11 mph 70% 0 in 62 W/m2
14:53 53.4 °F 43.5 °F 30.1 in Calm   2 mph 69% 0 in 58 W/m2
14:58 53.4 °F 43.9 °F 30.1 in East 2 mph 10 mph 70% 0 in 83 W/m2
15:03 53.6 °F 44.1 °F 30.1 in NNW 0.9 mph 5 mph 70% 0 in 105 W/m2
15:08 53.8 °F 43.9 °F 30.1 in WNW 2 mph 3 mph 69% 0 in 107 W/m2
15:13 53.8 °F 43.9 °F 30.1 in NW 4 mph 7 mph 69% 0 in 69 W/m2
15:18 53.8 °F 43.5 °F 30.1 in ENE 2.9 mph 7 mph 68% 0 in 79 W/m2
15:23 54 °F 43.7 °F 30.1 in ESE 4 mph 5 mph 68% 0 in 60 W/m2
15:28 54 °F 44.1 °F 30.1 in East 2.9 mph 10 mph 69% 0 in 72 W/m2
15:33 54 °F 43.7 °F 30.1 in Calm   4 mph 68% 0 in 121 W/m2
15:38 54 °F 43.7 °F 30.1 in West 2 mph 8 mph 68% 0 in 74 W/m2
15:43 54.1 °F 43.9 °F 30.1 in ENE 4 mph 4 mph 68% 0 in 69 W/m2
15:48 54.1 °F 43.9 °F 30.1 in ENE 4 mph 4 mph 68% 0 in 81 W/m2
15:53 54.1 °F 43.3 °F 30.1 in East 2.9 mph 8 mph 67% 0 in 84 W/m2
15:58 54 °F 43.3 °F 30.1 in NE 0.9 mph 5 mph 67% 0 in 83 W/m2
16:03 54 °F 43.7 °F 30.1 in ESE 2 mph 8 mph 68% 0 in 76 W/m2
16:08 54 °F 43.7 °F 30.1 in East 2 mph 3 mph 68% 0 in 74 W/m2
16:13 53.8 °F 44.2 °F 30.1 in East 6 mph 6 mph 70% 0 in 76 W/m2
16:18 53.8 °F 43.5 °F 30.1 in East 2 mph 5 mph 68% 0 in 77 W/m2
16:23 53.6 °F 43.3 °F 30.1 in East 4 mph 7 mph 68% 0 in 79 W/m2
16:28 53.6 °F 43.3 °F 30.1 in East 0.9 mph 2 mph 68% 0 in 72 W/m2
16:33 53.4 °F 43.9 °F 30.1 in East 4.9 mph 5 mph 70% 0 in 65 W/m2
16:38 53.4 °F 43.5 °F 30.1 in ENE 2 mph 5 mph 69% 0 in 60 W/m2
16:43 53.2 °F 43.3 °F 30.1 in ENE 0.9 mph 6 mph 69% 0 in 56 W/m2
16:48 53.2 °F 43.3 °F 30.1 in East 0.9 mph 3 mph 69% 0 in 54 W/m2
16:53 53.1 °F 43.2 °F 30.1 in ENE 2 mph 5 mph 69% 0 in 53 W/m2
16:58 52.9 °F 43 °F 30.1 in East 2.9 mph 5 mph 69% 0 in 54 W/m2
17:03 52.7 °F 42.8 °F 30.1 in Calm   2 mph 69% 0 in 49 W/m2
17:08 52.5 °F 43.3 °F 30.1 in SE 2.9 mph 4 mph 71% 0 in 35 W/m2
17:13 52.2 °F 43.7 °F 30 in ENE 2 mph 4 mph 73% 0 in 26 W/m2
17:18 52 °F 43.9 °F 30 in ENE 0.9 mph 5 mph 74% 0 in 21 W/m2
17:23 51.8 °F 44.1 °F 30 in East 0.9 mph 1 mph 75% 0 in 16 W/m2
17:28 51.6 °F 44.2 °F 30 in ENE 0.9 mph 2 mph 76% 0 in 12 W/m2
17:33 51.3 °F 44.2 °F 30 in ENE 2 mph 2 mph 77% 0 in 11 W/m2
17:38 51.1 °F 44.1 °F 30 in ESE 2 mph 2 mph 77% 0 in 11 W/m2
17:43 50.7 °F 43.7 °F 30 in Calm     77% 0 in 7 W/m2
17:48 50.2 °F 43.5 °F 30.1 in East 4 mph 4 mph 78% 0 in 0 W/m2
17:53 49.8 °F 43.5 °F 30.1 in ESE 0.9 mph 1 mph 79% 0 in 0 W/m2
17:58 49.8 °F 43.5 °F 30.1 in ESE 0.9 mph 2 mph 79% 0 in 0 W/m2
18:03 49.6 °F 43.3 °F 30.1 in ENE 2.9 mph 4 mph 79% 0 in 0 W/m2
18:08 49.8 °F 43.5 °F 30.1 in Calm   2 mph 79% 0 in 0 W/m2
18:13 49.8 °F 43.5 °F 30 in East 2 mph 4 mph 79% 0 in 0 W/m2
18:18 49.8 °F 43.2 °F 30 in ENE 2.9 mph 4 mph 78% 0 in 0 W/m2
18:23 49.8 °F 43.2 °F 30.1 in ENE 2.9 mph 3 mph 78% 0 in 0 W/m2
18:28 49.6 °F 43 °F 30.1 in Calm   1 mph 78% 0 in 0 W/m2
18:33 49.5 °F 42.6 °F 30 in Calm   9 mph 77% 0 in 0 W/m2
18:38 49.5 °F 42.6 °F 30 in Calm   2 mph 77% 0 in 0 W/m2
18:43 49.5 °F 42.3 °F 30 in East 4 mph 9 mph 76% 0 in 0 W/m2
18:48 49.3 °F 42.4 °F 30 in NNE 0.9 mph 3 mph 77% 0 in 0 W/m2
18:53 48.9 °F 42.4 °F 30 in ENE 0.9 mph 3 mph 78% 0 in 0 W/m2
18:58 48.6 °F 42.3 °F 30.1 in ENE 2 mph 4 mph 79% 0 in 0 W/m2
19:03 48.4 °F 42.3 °F 30.1 in Calm   2 mph 79% 0 in 0 W/m2
19:08 48 °F 42.1 °F 30.1 in NE 0.9 mph 4 mph 80% 0 in 0 W/m2
19:13 48.2 °F 42.1 °F 30 in NE 0.9 mph 2 mph 79% 0 in 0 W/m2
19:18 48.4 °F 42.3 °F 30 in North 0.9 mph 1 mph 79% 0 in 0 W/m2
19:23 48.6 °F 42.1 °F 30 in North 2 mph 3 mph 78% 0 in 0 W/m2
19:28 48.9 °F 42.1 °F 30.1 in NNE 0.9 mph 4 mph 77% 0 in 0 W/m2
19:33 49.1 °F 42.3 °F 30.1 in NNW 0.9 mph 7 mph 77% 0 in 0 W/m2
19:38 49.3 °F 42.4 °F 30.1 in North 2.9 mph 3 mph 77% 0 in 0 W/m2
19:43 49.3 °F 42.4 °F 30.1 in Calm   4 mph 77% 0 in 0 W/m2
19:48 49.3 °F 42.1 °F 30.1 in NNW 2.9 mph 9 mph 76% 0 in 0 W/m2
19:53 49.5 °F 42.3 °F 30 in NNE 0.9 mph 3 mph 76% 0 in 0 W/m2
19:58 49.5 °F 42.3 °F 30.1 in NNE 0.9 mph 3 mph 76% 0 in 0 W/m2
20:03 49.6 °F 42.1 °F 30.1 in NE 0.9 mph 3 mph 75% 0 in 0 W/m2
20:08 49.6 °F 42.1 °F 30.1 in NNW 0.9 mph 3 mph 75% 0 in 0 W/m2
20:13 49.6 °F 42.1 °F 30.1 in North 2 mph 5 mph 75% 0 in 0 W/m2
20:18 49.6 °F 42.1 °F 30.1 in ENE 0.9 mph 5 mph 75% 0 in 0 W/m2
20:23 49.6 °F 42.1 °F 30.1 in West 2.9 mph 7 mph 75% 0 in 0 W/m2
20:28 49.6 °F 42.1 °F 30.1 in North 4 mph 5 mph 75% 0 in 0 W/m2
20:33 49.6 °F 42.1 °F 30.1 in Calm   8 mph 75% 0 in 0 W/m2
20:38 49.6 °F 42.1 °F 30.1 in NNW 4 mph 6 mph 75% 0 in 0 W/m2
20:44 49.6 °F 42.1 °F 30 in NW 2 mph 9 mph 75% 0 in 0 W/m2
20:49 49.5 °F 42.3 °F 30 in SSW 4.9 mph 7 mph 76% 0 in 0 W/m2
20:54 49.5 °F 42.3 °F 30 in NW 2 mph 3 mph 76% 0 in 0 W/m2
20:59 49.5 °F 42.3 °F 30 in ENE 0.9 mph 7 mph 76% 0 in 0 W/m2
21:04 49.5 °F 42.3 °F 30 in NW 2.9 mph 3 mph 76% 0 in 0 W/m2
21:09 49.6 °F 42.1 °F 30 in South 2 mph 8 mph 75% 0 in 0 W/m2
21:14 49.6 °F 42.1 °F 30 in WSW 0.9 mph 7 mph 75% 0 in 0 W/m2
21:19 49.6 °F 42.1 °F 30 in North 2 mph 8 mph 75% 0 in 0 W/m2
21:24 49.8 °F 42.3 °F 30 in WNW 4 mph 9 mph 75% 0 in 0 W/m2
21:29 49.8 °F 42.3 °F 30 in NNE 2 mph 4 mph 75% 0 in 0 W/m2
21:34 49.8 °F 42.3 °F 30 in NNE 0.9 mph 1 mph 75% 0 in 0 W/m2
21:39 49.6 °F 42.1 °F 30 in North 2.9 mph 3 mph 75% 0 in 0 W/m2
21:44 49.6 °F 42.1 °F 30.1 in NNW 4.9 mph 6 mph 75% 0 in 0 W/m2
21:49 49.8 °F 41.9 °F 30.1 in Calm   3 mph 74% 0 in 0 W/m2
21:54 50 °F 42.1 °F 30.1 in West 2 mph 4 mph 74% 0 in 0 W/m2
21:59 50.2 °F 42.3 °F 30.1 in North 2.9 mph 3 mph 74% 0 in 0 W/m2
22:04 50.2 °F 41.9 °F 30.1 in NW 2.9 mph 7 mph 73% 0 in 0 W/m2
22:09 50.2 °F 41.9 °F 30 in WNW 2 mph 2 mph 73% 0 in 0 W/m2
22:14 50.2 °F 41.9 °F 30 in NE 2 mph 4 mph 73% 0 in 0 W/m2
22:19 50.2 °F 41.9 °F 30 in NNE 0.9 mph 3 mph 73% 0 in 0 W/m2
22:24 50.2 °F 41.9 °F 30 in NE 2 mph 3 mph 73% 0 in 0 W/m2
22:29 50.2 °F 41.9 °F 30 in North 2 mph 9 mph 73% 0 in 0 W/m2
22:34 50.2 °F 41.9 °F 30 in WNW 4.9 mph 5 mph 73% 0 in 0 W/m2
22:39 50.2 °F 41.5 °F 30 in West 2.9 mph 3 mph 72% 0 in 0 W/m2
22:44 50.2 °F 41.5 °F 30 in Calm   3 mph 72% 0 in 0 W/m2
22:49 50.4 °F 41.7 °F 30 in WNW 0.9 mph 2 mph 72% 0 in 0 W/m2
22:54 50.5 °F 41.9 °F 30 in WNW 2.9 mph 10 mph 72% 0 in 0 W/m2
22:59 50.7 °F 41.7 °F 30 in WNW 2.9 mph 4 mph 71% 0 in 0 W/m2
23:04 51.1 °F 42.1 °F 30 in NNW 2.9 mph 3 mph 71% 0 in 0 W/m2
23:09 51.1 °F 42.1 °F 30 in NW 0.9 mph 3 mph 71% 0 in 0 W/m2
23:14 51.3 °F 41.9 °F 30 in WNW 2 mph 10 mph 70% 0 in 0 W/m2
23:19 51.4 °F 41.9 °F 30 in North 2.9 mph 7 mph 70% 0 in 0 W/m2
23:24 51.4 °F 41.9 °F 30 in West 6 mph 7 mph 70% 0 in 0 W/m2
23:29 51.4 °F 41.9 °F 30 in WNW 2.9 mph 3 mph 70% 0 in 0 W/m2
23:34 51.6 °F 41.7 °F 30 in Calm   4 mph 69% 0 in 0 W/m2
23:39 51.6 °F 41.7 °F 30 in SE 2 mph 4 mph 69% 0 in 0 W/m2
23:44 51.8 °F 41.9 °F 30 in NW 0.9 mph 6 mph 69% 0 in 0 W/m2
23:49 51.6 °F 41.7 °F 30 in NNW 2 mph 4 mph 69% 0 in 0 W/m2
23:54 51.6 °F 41.7 °F 30 in NE 0.9 mph 4 mph 69% 0 in 0 W/m2
23:59 51.6 °F 41.7 °F 30 in North 2 mph 3 mph 69% 0 in 0 W/m2
Juneau County Weather
Compliments of Weather Underground - 4 mb